Terminal Aerodrome Forecast
Issued by NWS Charleston, WV

Home | Current Version | Previous Version | Text Only | Print | Product List | Glossary On
Versions: 1 2 3 4 5 6 7 8 9 10 11 12 13 14 15 16 17 18 19 20 21
000
FTUS41 KRLX 201700
TAFCRW
TAF
KCRW 201729Z 2018/2118 00000KT P6SM OVC050
     FM210600 00000KT P6SM BKN025
     FM210900 00000KT 6SM BR BKN025
     FM211200 00000KT 6SM BR BKN015
     FM211300 00000KT P6SM BKN015=

USA.gov is the U.S. government's official web portal to all federal, state and local government web resources and services.